sensor_id;sensor_type;location;lat;lon;timestamp;temperature;humidity
52044;DHT22;38053;53.100;6.078;2022-09-28T00:01:22;7.70;99.90
52044;DHT22;38053;53.100;6.078;2022-09-28T00:03:51;7.70;99.90
52044;DHT22;38053;53.100;6.078;2022-09-28T00:06:19;7.70;99.90
52044;DHT22;38053;53.100;6.078;2022-09-28T00:08:46;7.70;99.90
52044;DHT22;38053;53.100;6.078;2022-09-28T00:11:15;7.60;99.90
52044;DHT22;38053;53.100;6.078;2022-09-28T00:13:44;7.60;99.90
52044;DHT22;38053;53.100;6.078;2022-09-28T00:16:15;7.60;99.90
52044;DHT22;38053;53.100;6.078;2022-09-28T00:18:42;7.60;99.90
52044;DHT22;38053;53.100;6.078;2022-09-28T00:21:17;7.60;99.90
52044;DHT22;38053;53.100;6.078;2022-09-28T00:23:44;7.50;99.90
52044;DHT22;38053;53.100;6.078;2022-09-28T00:26:30;7.50;99.90
52044;DHT22;38053;53.100;6.078;2022-09-28T00:28:58;7.50;99.90
52044;DHT22;38053;53.100;6.078;2022-09-28T00:31:25;7.50;99.90
52044;DHT22;38053;53.100;6.078;2022-09-28T00:33:53;7.40;99.90
52044;DHT22;38053;53.100;6.078;2022-09-28T00:36:23;7.40;99.90
52044;DHT22;38053;53.100;6.078;2022-09-28T00:38:49;7.50;99.90
52044;DHT22;38053;53.100;6.078;2022-09-28T00:41:16;7.40;99.90
52044;DHT22;38053;53.100;6.078;2022-09-28T00:43:42;7.40;99.90
52044;DHT22;38053;53.100;6.078;2022-09-28T00:46:29;7.40;99.90
52044;DHT22;38053;53.100;6.078;2022-09-28T00:49:00;7.40;99.90
52044;DHT22;38053;53.100;6.078;2022-09-28T00:51:30;7.30;99.90
52044;DHT22;38053;53.100;6.078;2022-09-28T00:53:58;7.30;99.90
52044;DHT22;38053;53.100;6.078;2022-09-28T00:56:27;7.30;99.90
52044;DHT22;38053;53.100;6.078;2022-09-28T00:58:53;7.30;99.90
52044;DHT22;38053;53.100;6.078;2022-09-28T01:01:21;7.30;99.90
52044;DHT22;38053;53.100;6.078;2022-09-28T01:03:47;7.30;99.90
52044;DHT22;38053;53.100;6.078;2022-09-28T01:06:19;7.30;99.90
52044;DHT22;38053;53.100;6.078;2022-09-28T01:08:46;7.20;99.90
52044;DHT22;38053;53.100;6.078;2022-09-28T01:11:12;7.20;99.90
52044;DHT22;38053;53.100;6.078;2022-09-28T01:13:39;7.20;99.90
52044;DHT22;38053;53.100;6.078;2022-09-28T01:21:49;7.10;99.90
52044;DHT22;38053;53.100;6.078;2022-09-28T01:24:38;7.10;99.90
52044;DHT22;38053;53.100;6.078;2022-09-28T01:27:14;7.10;99.90
52044;DHT22;38053;53.100;6.078;2022-09-28T01:35:12;7.20;99.90
52044;DHT22;38053;53.100;6.078;2022-09-28T01:40:24;7.20;99.90
52044;DHT22;38053;53.100;6.078;2022-09-28T01:42:55;7.20;99.90
52044;DHT22;38053;53.100;6.078;2022-09-28T01:45:27;7.20;99.90
52044;DHT22;38053;53.100;6.078;2022-09-28T01:47:55;7.10;99.90
52044;DHT22;38053;53.100;6.078;2022-09-28T01:50:24;7.20;99.90
52044;DHT22;38053;53.100;6.078;2022-09-28T01:55:27;7.10;99.90
52044;DHT22;38053;53.100;6.078;2022-09-28T01:58:11;7.20;99.90
52044;DHT22;38053;53.100;6.078;2022-09-28T02:00:40;7.20;99.90
52044;DHT22;38053;53.100;6.078;2022-09-28T02:03:14;7.20;99.90
52044;DHT22;38053;53.100;6.078;2022-09-28T02:05:49;7.20;99.90
52044;DHT22;38053;53.100;6.078;2022-09-28T02:08:39;7.20;99.90
52044;DHT22;38053;53.100;6.078;2022-09-28T02:11:14;7.20;99.90
52044;DHT22;38053;53.100;6.078;2022-09-28T02:14:00;7.20;99.90
52044;DHT22;38053;53.100;6.078;2022-09-28T02:16:35;7.20;99.90
52044;DHT22;38053;53.100;6.078;2022-09-28T02:19:04;7.20;99.90
52044;DHT22;38053;53.100;6.078;2022-09-28T02:24:34;7.20;99.90
52044;DHT22;38053;53.100;6.078;2022-09-28T02:27:14;7.20;99.90
52044;DHT22;38053;53.100;6.078;2022-09-28T02:29:40;7.20;99.90
52044;DHT22;38053;53.100;6.078;2022-09-28T02:32:06;7.20;99.90
52044;DHT22;38053;53.100;6.078;2022-09-28T02:34:32;7.20;99.90
52044;DHT22;38053;53.100;6.078;2022-09-28T02:37:00;7.20;99.90
52044;DHT22;38053;53.100;6.078;2022-09-28T02:39:26;7.20;99.90
52044;DHT22;38053;53.100;6.078;2022-09-28T02:52:26;7.20;99.90
52044;DHT22;38053;53.100;6.078;2022-09-28T02:55:13;7.30;99.90
52044;DHT22;38053;53.100;6.078;2022-09-28T03:01:00;7.20;99.90
52044;DHT22;38053;53.100;6.078;2022-09-28T03:03:49;7.20;99.90
52044;DHT22;38053;53.100;6.078;2022-09-28T03:06:40;7.20;99.90
52044;DHT22;38053;53.100;6.078;2022-09-28T03:09:16;7.20;99.90
52044;DHT22;38053;53.100;6.078;2022-09-28T03:11:50;7.20;99.90
52044;DHT22;38053;53.100;6.078;2022-09-28T03:14:16;7.20;99.90
52044;DHT22;38053;53.100;6.078;2022-09-28T03:16:43;7.20;99.90
52044;DHT22;38053;53.100;6.078;2022-09-28T03:19:11;7.20;99.90
52044;DHT22;38053;53.100;6.078;2022-09-28T03:21:36;7.20;99.90
52044;DHT22;38053;53.100;6.078;2022-09-28T03:24:02;7.20;99.90
52044;DHT22;38053;53.100;6.078;2022-09-28T03:26:30;7.20;99.90
52044;DHT22;38053;53.100;6.078;2022-09-28T03:28:55;7.20;99.90
52044;DHT22;38053;53.100;6.078;2022-09-28T03:31:21;7.20;99.90
52044;DHT22;38053;53.100;6.078;2022-09-28T03:33:47;7.30;99.90
52044;DHT22;38053;53.100;6.078;2022-09-28T03:36:12;7.30;99.90
52044;DHT22;38053;53.100;6.078;2022-09-28T03:38:39;7.30;99.90
52044;DHT22;38053;53.100;6.078;2022-09-28T03:41:05;7.30;99.90
52044;DHT22;38053;53.100;6.078;2022-09-28T03:43:32;7.30;99.90
52044;DHT22;38053;53.100;6.078;2022-09-28T03:45:58;7.30;99.90
52044;DHT22;38053;53.100;6.078;2022-09-28T03:48:26;7.30;99.90
52044;DHT22;38053;53.100;6.078;2022-09-28T03:50:54;7.30;99.90
52044;DHT22;38053;53.100;6.078;2022-09-28T03:53:20;7.40;99.90
52044;DHT22;38053;53.100;6.078;2022-09-28T03:55:46;7.40;99.90
52044;DHT22;38053;53.100;6.078;2022-09-28T03:58:12;7.40;99.90
52044;DHT22;38053;53.100;6.078;2022-09-28T04:00:37;7.40;99.90
52044;DHT22;38053;53.100;6.078;2022-09-28T04:03:03;7.40;99.90
52044;DHT22;38053;53.100;6.078;2022-09-28T04:05:29;7.50;99.90
52044;DHT22;38053;53.100;6.078;2022-09-28T04:07:55;7.50;99.90
52044;DHT22;38053;53.100;6.078;2022-09-28T04:10:22;7.50;99.90
52044;DHT22;38053;53.100;6.078;2022-09-28T04:12:48;7.50;99.90
52044;DHT22;38053;53.100;6.078;2022-09-28T04:15:15;7.50;99.90
52044;DHT22;38053;53.100;6.078;2022-09-28T04:17:41;7.50;99.90
52044;DHT22;38053;53.100;6.078;2022-09-28T04:20:07;7.50;99.90
52044;DHT22;38053;53.100;6.078;2022-09-28T04:22:33;7.60;99.90
52044;DHT22;38053;53.100;6.078;2022-09-28T04:25:03;7.60;99.90
52044;DHT22;38053;53.100;6.078;2022-09-28T04:27:29;7.60;99.90
52044;DHT22;38053;53.100;6.078;2022-09-28T04:30:13;7.60;99.90
52044;DHT22;38053;53.100;6.078;2022-09-28T04:32:39;7.60;99.90
52044;DHT22;38053;53.100;6.078;2022-09-28T04:35:05;7.60;99.90
52044;DHT22;38053;53.100;6.078;2022-09-28T04:37:31;7.60;99.90
52044;DHT22;38053;53.100;6.078;2022-09-28T04:39:58;7.60;99.90
52044;DHT22;38053;53.100;6.078;2022-09-28T04:42:23;7.60;99.90
52044;DHT22;38053;53.100;6.078;2022-09-28T04:44:49;7.60;99.90
52044;DHT22;38053;53.100;6.078;2022-09-28T04:47:15;7.60;99.90
52044;DHT22;38053;53.100;6.078;2022-09-28T04:49:40;7.60;99.90
52044;DHT22;38053;53.100;6.078;2022-09-28T04:52:06;7.60;99.90
52044;DHT22;38053;53.100;6.078;2022-09-28T04:54:32;7.60;99.90
52044;DHT22;38053;53.100;6.078;2022-09-28T04:56:58;7.60;99.90
52044;DHT22;38053;53.100;6.078;2022-09-28T04:59:23;7.60;99.90
52044;DHT22;38053;53.100;6.078;2022-09-28T05:01:50;7.70;99.90
52044;DHT22;38053;53.100;6.078;2022-09-28T05:04:18;7.70;99.90
52044;DHT22;38053;53.100;6.078;2022-09-28T05:06:44;7.70;99.90
52044;DHT22;38053;53.100;6.078;2022-09-28T05:09:09;7.60;99.90
52044;DHT22;38053;53.100;6.078;2022-09-28T05:11:35;7.70;99.90
52044;DHT22;38053;53.100;6.078;2022-09-28T05:14:01;7.70;99.90
52044;DHT22;38053;53.100;6.078;2022-09-28T05:16:26;7.70;99.90
52044;DHT22;38053;53.100;6.078;2022-09-28T05:18:56;7.70;99.90
52044;DHT22;38053;53.100;6.078;2022-09-28T05:21:21;7.70;99.90
52044;DHT22;38053;53.100;6.078;2022-09-28T05:23:49;7.60;99.90
52044;DHT22;38053;53.100;6.078;2022-09-28T05:26:15;7.60;99.90
52044;DHT22;38053;53.100;6.078;2022-09-28T05:28:41;7.50;99.90
52044;DHT22;38053;53.100;6.078;2022-09-28T05:31:06;7.50;99.90
52044;DHT22;38053;53.100;6.078;2022-09-28T05:33:32;7.40;99.90
52044;DHT22;38053;53.100;6.078;2022-09-28T05:35:59;7.40;99.90
52044;DHT22;38053;53.100;6.078;2022-09-28T05:38:25;7.30;99.90
52044;DHT22;38053;53.100;6.078;2022-09-28T05:40:51;7.20;99.90
52044;DHT22;38053;53.100;6.078;2022-09-28T05:43:16;7.20;99.90
52044;DHT22;38053;53.100;6.078;2022-09-28T05:45:42;7.20;99.90
52044;DHT22;38053;53.100;6.078;2022-09-28T05:48:08;7.10;99.90
52044;DHT22;38053;53.100;6.078;2022-09-28T05:50:33;7.10;99.90
52044;DHT22;38053;53.100;6.078;2022-09-28T05:53:02;7.10;99.90
52044;DHT22;38053;53.100;6.078;2022-09-28T05:55:28;7.00;99.90
52044;DHT22;38053;53.100;6.078;2022-09-28T05:57:57;7.00;99.90
52044;DHT22;38053;53.100;6.078;2022-09-28T06:00:23;7.00;99.90
52044;DHT22;38053;53.100;6.078;2022-09-28T06:03:00;7.00;99.90
52044;DHT22;38053;53.100;6.078;2022-09-28T06:05:28;7.00;99.90
52044;DHT22;38053;53.100;6.078;2022-09-28T06:08:03;7.00;99.90
52044;DHT22;38053;53.100;6.078;2022-09-28T06:10:29;7.00;99.90
52044;DHT22;38053;53.100;6.078;2022-09-28T06:12:56;7.00;99.90
52044;DHT22;38053;53.100;6.078;2022-09-28T06:15:23;7.00;99.90
52044;DHT22;38053;53.100;6.078;2022-09-28T06:18:03;7.00;99.90
52044;DHT22;38053;53.100;6.078;2022-09-28T06:20:33;7.00;99.90
52044;DHT22;38053;53.100;6.078;2022-09-28T06:22:59;7.00;99.90
52044;DHT22;38053;53.100;6.078;2022-09-28T06:25:25;7.00;99.90
52044;DHT22;38053;53.100;6.078;2022-09-28T06:28:04;7.00;99.90
52044;DHT22;38053;53.100;6.078;2022-09-28T06:30:33;7.00;99.90
52044;DHT22;38053;53.100;6.078;2022-09-28T06:33:00;7.00;99.90
52044;DHT22;38053;53.100;6.078;2022-09-28T06:35:28;7.00;99.90
52044;DHT22;38053;53.100;6.078;2022-09-28T06:37:54;6.90;99.90
52044;DHT22;38053;53.100;6.078;2022-09-28T06:40:21;6.90;99.90
52044;DHT22;38053;53.100;6.078;2022-09-28T06:42:58;6.90;99.90
52044;DHT22;38053;53.100;6.078;2022-09-28T06:45:25;6.90;99.90
52044;DHT22;38053;53.100;6.078;2022-09-28T06:47:56;6.90;99.90
52044;DHT22;38053;53.100;6.078;2022-09-28T06:50:24;6.90;99.90
52044;DHT22;38053;53.100;6.078;2022-09-28T06:52:51;6.80;99.90
52044;DHT22;38053;53.100;6.078;2022-09-28T06:55:17;6.90;99.90
52044;DHT22;38053;53.100;6.078;2022-09-28T06:57:43;6.90;99.90
52044;DHT22;38053;53.100;6.078;2022-09-28T07:00:09;6.90;99.90
52044;DHT22;38053;53.100;6.078;2022-09-28T07:02:35;6.90;99.90
52044;DHT22;38053;53.100;6.078;2022-09-28T07:05:00;7.00;99.90
52044;DHT22;38053;53.100;6.078;2022-09-28T07:07:27;7.00;99.90
52044;DHT22;38053;53.100;6.078;2022-09-28T07:09:54;7.00;99.90
52044;DHT22;38053;53.100;6.078;2022-09-28T07:12:20;7.10;99.90
52044;DHT22;38053;53.100;6.078;2022-09-28T07:14:47;7.10;99.90
52044;DHT22;38053;53.100;6.078;2022-09-28T07:17:15;7.20;99.90
52044;DHT22;38053;53.100;6.078;2022-09-28T07:19:40;7.20;99.90
52044;DHT22;38053;53.100;6.078;2022-09-28T07:22:06;7.30;99.90
52044;DHT22;38053;53.100;6.078;2022-09-28T07:24:32;7.30;99.90
52044;DHT22;38053;53.100;6.078;2022-09-28T07:26:57;7.40;99.90
52044;DHT22;38053;53.100;6.078;2022-09-28T07:29:23;7.40;99.90
52044;DHT22;38053;53.100;6.078;2022-09-28T07:31:52;7.50;99.90
52044;DHT22;38053;53.100;6.078;2022-09-28T07:34:18;7.60;99.90
52044;DHT22;38053;53.100;6.078;2022-09-28T07:36:44;7.70;99.90
52044;DHT22;38053;53.100;6.078;2022-09-28T07:39:10;7.70;99.90
52044;DHT22;38053;53.100;6.078;2022-09-28T07:41:36;7.70;99.90
52044;DHT22;38053;53.100;6.078;2022-09-28T07:44:04;7.80;99.90
52044;DHT22;38053;53.100;6.078;2022-09-28T07:46:35;7.80;99.90
52044;DHT22;38053;53.100;6.078;2022-09-28T07:49:02;7.90;99.90
52044;DHT22;38053;53.100;6.078;2022-09-28T07:51:31;8.00;99.90
52044;DHT22;38053;53.100;6.078;2022-09-28T07:53:57;8.00;99.90
52044;DHT22;38053;53.100;6.078;2022-09-28T07:56:23;8.10;99.90
52044;DHT22;38053;53.100;6.078;2022-09-28T07:58:50;8.20;99.90
52044;DHT22;38053;53.100;6.078;2022-09-28T08:01:15;8.20;99.90
52044;DHT22;38053;53.100;6.078;2022-09-28T08:03:45;8.30;99.90
52044;DHT22;38053;53.100;6.078;2022-09-28T08:06:14;8.40;99.90
52044;DHT22;38053;53.100;6.078;2022-09-28T08:08:42;8.40;99.90
52044;DHT22;38053;53.100;6.078;2022-09-28T08:11:14;8.50;99.90
52044;DHT22;38053;53.100;6.078;2022-09-28T08:13:40;8.60;99.90
52044;DHT22;38053;53.100;6.078;2022-09-28T08:16:06;8.60;99.90
52044;DHT22;38053;53.100;6.078;2022-09-28T08:18:33;8.70;99.90
52044;DHT22;38053;53.100;6.078;2022-09-28T08:21:04;8.70;99.90
52044;DHT22;38053;53.100;6.078;2022-09-28T08:23:49;8.80;99.90
52044;DHT22;38053;53.100;6.078;2022-09-28T08:26:15;8.90;99.90
52044;DHT22;38053;53.100;6.078;2022-09-28T08:28:41;9.00;99.90
52044;DHT22;38053;53.100;6.078;2022-09-28T08:31:08;9.10;99.90
52044;DHT22;38053;53.100;6.078;2022-09-28T08:33:34;9.10;99.90
52044;DHT22;38053;53.100;6.078;2022-09-28T08:36:01;9.30;99.90
52044;DHT22;38053;53.100;6.078;2022-09-28T08:38:29;9.40;99.90
52044;DHT22;38053;53.100;6.078;2022-09-28T08:41:42;9.50;99.90
52044;DHT22;38053;53.100;6.078;2022-09-28T08:46:34;9.70;99.90
52044;DHT22;38053;53.100;6.078;2022-09-28T08:49:13;9.80;99.90
52044;DHT22;38053;53.100;6.078;2022-09-28T08:54:57;10.00;99.90
52044;DHT22;38053;53.100;6.078;2022-09-28T08:57:33;10.10;99.90
52044;DHT22;38053;53.100;6.078;2022-09-28T09:00:02;10.20;99.90
52044;DHT22;38053;53.100;6.078;2022-09-28T09:02:32;10.30;99.90
52044;DHT22;38053;53.100;6.078;2022-09-28T09:04:59;10.30;99.90
52044;DHT22;38053;53.100;6.078;2022-09-28T09:07:52;10.40;99.90
52044;DHT22;38053;53.100;6.078;2022-09-28T09:23:54;11.00;99.90
52044;DHT22;38053;53.100;6.078;2022-09-28T09:26:39;11.10;99.90
52044;DHT22;38053;53.100;6.078;2022-09-28T09:32:11;11.30;99.90
52044;DHT22;38053;53.100;6.078;2022-09-28T09:38:05;11.50;99.90
52044;DHT22;38053;53.100;6.078;2022-09-28T09:46:44;12.00;99.90
52044;DHT22;38053;53.100;6.078;2022-09-28T09:49:16;12.20;99.90
52044;DHT22;38053;53.100;6.078;2022-09-28T09:51:49;12.30;99.90
52044;DHT22;38053;53.100;6.078;2022-09-28T09:54:25;12.40;99.90
52044;DHT22;38053;53.100;6.078;2022-09-28T09:57:00;12.60;99.90
52044;DHT22;38053;53.100;6.078;2022-09-28T09:59:35;12.70;99.90
52044;DHT22;38053;53.100;6.078;2022-09-28T10:02:09;12.90;99.90
52044;DHT22;38053;53.100;6.078;2022-09-28T10:04:40;13.20;99.90
52044;DHT22;38053;53.100;6.078;2022-09-28T10:07:15;13.30;99.90
52044;DHT22;38053;53.100;6.078;2022-09-28T10:09:44;13.40;99.90
52044;DHT22;38053;53.100;6.078;2022-09-28T10:12:20;13.50;99.90
52044;DHT22;38053;53.100;6.078;2022-09-28T10:14:47;13.50;99.90
52044;DHT22;38053;53.100;6.078;2022-09-28T10:17:16;13.50;99.90
52044;DHT22;38053;53.100;6.078;2022-09-28T10:19:43;13.50;99.90
52044;DHT22;38053;53.100;6.078;2022-09-28T10:22:14;13.70;99.90
52044;DHT22;38053;53.100;6.078;2022-09-28T10:24:44;13.80;99.90
52044;DHT22;38053;53.100;6.078;2022-09-28T10:27:14;13.70;99.90
52044;DHT22;38053;53.100;6.078;2022-09-28T10:29:58;13.60;99.90
52044;DHT22;38053;53.100;6.078;2022-09-28T10:32:27;13.50;99.90
52044;DHT22;38053;53.100;6.078;2022-09-28T10:35:20;13.60;99.90
52044;DHT22;38053;53.100;6.078;2022-09-28T10:37:59;13.60;99.90
52044;DHT22;38053;53.100;6.078;2022-09-28T10:46:14;14.40;99.90
52044;DHT22;38053;53.100;6.078;2022-09-28T10:51:10;14.80;99.90
52044;DHT22;38053;53.100;6.078;2022-09-28T10:53:36;14.70;99.90
52044;DHT22;38053;53.100;6.078;2022-09-28T10:56:05;14.80;99.90
52044;DHT22;38053;53.100;6.078;2022-09-28T10:58:40;14.90;99.90
52044;DHT22;38053;53.100;6.078;2022-09-28T11:01:11;15.00;99.90
52044;DHT22;38053;53.100;6.078;2022-09-28T11:04:01;14.90;99.90
52044;DHT22;38053;53.100;6.078;2022-09-28T11:06:35;14.60;99.90
52044;DHT22;38053;53.100;6.078;2022-09-28T11:09:04;14.50;99.90
52044;DHT22;38053;53.100;6.078;2022-09-28T11:11:39;14.30;99.90
52044;DHT22;38053;53.100;6.078;2022-09-28T11:14:21;14.30;99.90
52044;DHT22;38053;53.100;6.078;2022-09-28T11:19:41;14.10;99.90
52044;DHT22;38053;53.100;6.078;2022-09-28T11:22:22;14.00;99.90
52044;DHT22;38053;53.100;6.078;2022-09-28T11:24:48;14.00;99.90
52044;DHT22;38053;53.100;6.078;2022-09-28T11:27:22;14.00;99.90
52044;DHT22;38053;53.100;6.078;2022-09-28T11:29:57;13.90;99.90
52044;DHT22;38053;53.100;6.078;2022-09-28T11:32:25;13.80;99.90
52044;DHT22;38053;53.100;6.078;2022-09-28T11:34:56;13.80;99.90
52044;DHT22;38053;53.100;6.078;2022-09-28T11:37:36;13.70;99.90
52044;DHT22;38053;53.100;6.078;2022-09-28T11:43:31;13.60;99.90
52044;DHT22;38053;53.100;6.078;2022-09-28T11:46:12;13.60;99.90
52044;DHT22;38053;53.100;6.078;2022-09-28T11:49:04;13.60;99.90
52044;DHT22;38053;53.100;6.078;2022-09-28T11:51:35;13.60;99.90
52044;DHT22;38053;53.100;6.078;2022-09-28T11:54:29;13.50;99.90
52044;DHT22;38053;53.100;6.078;2022-09-28T11:57:01;13.50;99.90
52044;DHT22;38053;53.100;6.078;2022-09-28T11:59:50;13.50;99.90
52044;DHT22;38053;53.100;6.078;2022-09-28T12:02:25;13.50;99.90
52044;DHT22;38053;53.100;6.078;2022-09-28T12:04:54;13.50;99.90
52044;DHT22;38053;53.100;6.078;2022-09-28T12:07:38;13.50;99.90
52044;DHT22;38053;53.100;6.078;2022-09-28T12:12:59;13.30;99.90
52044;DHT22;38053;53.100;6.078;2022-09-28T12:15:57;13.20;99.90
52044;DHT22;38053;53.100;6.078;2022-09-28T12:18:53;13.10;99.90
52044;DHT22;38053;53.100;6.078;2022-09-28T12:21:30;13.10;99.90
52044;DHT22;38053;53.100;6.078;2022-09-28T12:27:04;13.40;99.90
52044;DHT22;38053;53.100;6.078;2022-09-28T12:29:43;13.90;99.90
52044;DHT22;38053;53.100;6.078;2022-09-28T12:34:52;14.30;99.90
52044;DHT22;38053;53.100;6.078;2022-09-28T12:48:33;14.50;99.90
52044;DHT22;38053;53.100;6.078;2022-09-28T12:51:17;16.00;99.90
52044;DHT22;38053;53.100;6.078;2022-09-28T12:56:56;18.50;99.90
52044;DHT22;38053;53.100;6.078;2022-09-28T13:07:57;17.20;99.90
52044;DHT22;38053;53.100;6.078;2022-09-28T13:13:41;16.00;99.90
52044;DHT22;38053;53.100;6.078;2022-09-28T13:16:24;15.70;99.90
52044;DHT22;38053;53.100;6.078;2022-09-28T13:24:30;15.00;99.90
52044;DHT22;38053;53.100;6.078;2022-09-28T13:27:02;14.90;99.90
52044;DHT22;38053;53.100;6.078;2022-09-28T13:29:30;14.80;99.90
52044;DHT22;38053;53.100;6.078;2022-09-28T13:31:59;14.70;99.90
52044;DHT22;38053;53.100;6.078;2022-09-28T13:34:27;14.80;99.90
52044;DHT22;38053;53.100;6.078;2022-09-28T13:53:31;14.10;99.90
52044;DHT22;38053;53.100;6.078;2022-09-28T13:56:26;14.10;99.90
52044;DHT22;38053;53.100;6.078;2022-09-28T14:01:43;13.90;99.90
52044;DHT22;38053;53.100;6.078;2022-09-28T14:07:09;13.70;99.90
52044;DHT22;38053;53.100;6.078;2022-09-28T14:09:43;13.50;99.90
52044;DHT22;38053;53.100;6.078;2022-09-28T14:14:56;13.30;99.90
52044;DHT22;38053;53.100;6.078;2022-09-28T14:20:03;13.10;99.90
52044;DHT22;38053;53.100;6.078;2022-09-28T14:23:42;12.90;99.90
52044;DHT22;38053;53.100;6.078;2022-09-28T14:25:43;12.80;99.90
52044;DHT22;38053;53.100;6.078;2022-09-28T14:31:06;12.50;99.90
52044;DHT22;38053;53.100;6.078;2022-09-28T14:33:32;12.40;99.90
52044;DHT22;38053;53.100;6.078;2022-09-28T14:36:04;12.30;99.90
52044;DHT22;38053;53.100;6.078;2022-09-28T14:38:43;12.20;99.90
52044;DHT22;38053;53.100;6.078;2022-09-28T14:41:34;12.10;99.90
52044;DHT22;38053;53.100;6.078;2022-09-28T14:44:11;12.10;99.90
52044;DHT22;38053;53.100;6.078;2022-09-28T14:54:17;12.10;99.90
52044;DHT22;38053;53.100;6.078;2022-09-28T14:59:31;12.10;99.90
52044;DHT22;38053;53.100;6.078;2022-09-28T15:02:04;12.20;99.90
52044;DHT22;38053;53.100;6.078;2022-09-28T15:04:34;12.30;99.90
52044;DHT22;38053;53.100;6.078;2022-09-28T15:07:03;12.40;99.90
52044;DHT22;38053;53.100;6.078;2022-09-28T15:09:36;12.50;99.90
52044;DHT22;38053;53.100;6.078;2022-09-28T15:15:04;12.80;99.90
52044;DHT22;38053;53.100;6.078;2022-09-28T15:17:35;12.90;99.90
52044;DHT22;38053;53.100;6.078;2022-09-28T15:22:53;13.30;99.90
52044;DHT22;38053;53.100;6.078;2022-09-28T15:25:31;13.40;99.90
52044;DHT22;38053;53.100;6.078;2022-09-28T15:28:12;13.50;99.90
52044;DHT22;38053;53.100;6.078;2022-09-28T15:30:41;13.40;99.90
52044;DHT22;38053;53.100;6.078;2022-09-28T15:33:26;13.50;99.90
52044;DHT22;38053;53.100;6.078;2022-09-28T15:36:26;13.50;99.90
52044;DHT22;38053;53.100;6.078;2022-09-28T15:38:59;13.40;99.90
52044;DHT22;38053;53.100;6.078;2022-09-28T15:41:25;13.30;99.90
52044;DHT22;38053;53.100;6.078;2022-09-28T15:44:17;13.20;99.90
52044;DHT22;38053;53.100;6.078;2022-09-28T15:46:46;13.00;99.90
52044;DHT22;38053;53.100;6.078;2022-09-28T15:49:25;12.90;99.90
52044;DHT22;38053;53.100;6.078;2022-09-28T15:51:54;12.80;99.90
52044;DHT22;38053;53.100;6.078;2022-09-28T15:54:24;12.70;99.90
52044;DHT22;38053;53.100;6.078;2022-09-28T15:56:58;12.60;99.90
52044;DHT22;38053;53.100;6.078;2022-09-28T15:59:37;12.60;99.90
52044;DHT22;38053;53.100;6.078;2022-09-28T16:04:49;12.40;99.90
52044;DHT22;38053;53.100;6.078;2022-09-28T16:07:28;12.40;99.90
52044;DHT22;38053;53.100;6.078;2022-09-28T16:12:50;12.30;99.90
52044;DHT22;38053;53.100;6.078;2022-09-28T16:15:28;12.20;99.90
52044;DHT22;38053;53.100;6.078;2022-09-28T16:17:57;12.10;99.90
52044;DHT22;38053;53.100;6.078;2022-09-28T16:20:41;12.10;99.90
52044;DHT22;38053;53.100;6.078;2022-09-28T16:25:53;12.00;99.90
52044;DHT22;38053;53.100;6.078;2022-09-28T16:28:46;12.00;99.90
52044;DHT22;38053;53.100;6.078;2022-09-28T16:33:57;11.90;99.90
52044;DHT22;38053;53.100;6.078;2022-09-28T16:36:37;11.90;99.90
52044;DHT22;38053;53.100;6.078;2022-09-28T16:39:03;11.80;99.90
52044;DHT22;38053;53.100;6.078;2022-09-28T16:41:28;11.80;99.90
52044;DHT22;38053;53.100;6.078;2022-09-28T16:43:58;11.70;99.90
52044;DHT22;38053;53.100;6.078;2022-09-28T16:46:35;11.70;99.90
52044;DHT22;38053;53.100;6.078;2022-09-28T16:49:02;11.70;99.90
52044;DHT22;38053;53.100;6.078;2022-09-28T16:51:30;11.60;99.90
52044;DHT22;38053;53.100;6.078;2022-09-28T16:57:00;11.60;99.90
52044;DHT22;38053;53.100;6.078;2022-09-28T16:59:27;11.50;99.90
52044;DHT22;38053;53.100;6.078;2022-09-28T17:01:52;11.50;99.90
52044;DHT22;38053;53.100;6.078;2022-09-28T17:04:21;11.50;99.90
52044;DHT22;38053;53.100;6.078;2022-09-28T17:06:50;11.40;99.90
52044;DHT22;38053;53.100;6.078;2022-09-28T17:09:18;11.40;99.90
52044;DHT22;38053;53.100;6.078;2022-09-28T17:11:44;11.30;99.90
52044;DHT22;38053;53.100;6.078;2022-09-28T17:14:09;11.30;99.90
52044;DHT22;38053;53.100;6.078;2022-09-28T17:16:36;11.20;99.90
52044;DHT22;38053;53.100;6.078;2022-09-28T17:19:16;11.20;99.90
52044;DHT22;38053;53.100;6.078;2022-09-28T17:21:42;11.10;99.90
52044;DHT22;38053;53.100;6.078;2022-09-28T17:24:07;11.10;99.90
52044;DHT22;38053;53.100;6.078;2022-09-28T17:26:33;11.00;99.90
52044;DHT22;38053;53.100;6.078;2022-09-28T17:29:00;10.90;99.90
52044;DHT22;38053;53.100;6.078;2022-09-28T17:31:27;10.90;99.90
52044;DHT22;38053;53.100;6.078;2022-09-28T17:33:53;10.80;99.90
52044;DHT22;38053;53.100;6.078;2022-09-28T17:36:20;10.80;99.90
52044;DHT22;38053;53.100;6.078;2022-09-28T17:38:47;10.70;99.90
52044;DHT22;38053;53.100;6.078;2022-09-28T17:41:17;10.60;99.90
52044;DHT22;38053;53.100;6.078;2022-09-28T17:43:43;10.60;99.90
52044;DHT22;38053;53.100;6.078;2022-09-28T17:46:46;10.60;99.90
52044;DHT22;38053;53.100;6.078;2022-09-28T17:49:14;10.50;99.90
52044;DHT22;38053;53.100;6.078;2022-09-28T17:51:39;10.40;99.90
52044;DHT22;38053;53.100;6.078;2022-09-28T17:54:06;10.40;99.90
52044;DHT22;38053;53.100;6.078;2022-09-28T17:56:32;10.20;99.90
52044;DHT22;38053;53.100;6.078;2022-09-28T17:59:04;10.20;99.90
52044;DHT22;38053;53.100;6.078;2022-09-28T18:01:31;10.10;99.90
52044;DHT22;38053;53.100;6.078;2022-09-28T18:04:01;10.10;99.90
52044;DHT22;38053;53.100;6.078;2022-09-28T18:06:27;10.00;99.90
52044;DHT22;38053;53.100;6.078;2022-09-28T18:08:53;9.90;99.90
52044;DHT22;38053;53.100;6.078;2022-09-28T18:11:18;9.90;99.90
52044;DHT22;38053;53.100;6.078;2022-09-28T18:13:44;9.80;99.90
52044;DHT22;38053;53.100;6.078;2022-09-28T18:16:11;9.80;99.90
52044;DHT22;38053;53.100;6.078;2022-09-28T18:18:37;9.70;99.90
52044;DHT22;38053;53.100;6.078;2022-09-28T18:21:05;9.70;99.90
52044;DHT22;38053;53.100;6.078;2022-09-28T18:23:33;9.60;99.90
52044;DHT22;38053;53.100;6.078;2022-09-28T18:25:59;9.60;99.90
52044;DHT22;38053;53.100;6.078;2022-09-28T18:28:25;9.50;99.90
52044;DHT22;38053;53.100;6.078;2022-09-28T18:30:50;9.50;99.90
52044;DHT22;38053;53.100;6.078;2022-09-28T18:33:16;9.50;99.90
52044;DHT22;38053;53.100;6.078;2022-09-28T18:35:50;9.40;99.90
52044;DHT22;38053;53.100;6.078;2022-09-28T18:38:16;9.40;99.90
52044;DHT22;38053;53.100;6.078;2022-09-28T18:40:42;9.30;99.90
52044;DHT22;38053;53.100;6.078;2022-09-28T18:43:07;9.20;99.90
52044;DHT22;38053;53.100;6.078;2022-09-28T18:45:34;9.20;99.90
52044;DHT22;38053;53.100;6.078;2022-09-28T18:48:00;9.20;99.90
52044;DHT22;38053;53.100;6.078;2022-09-28T18:50:26;9.10;99.90
52044;DHT22;38053;53.100;6.078;2022-09-28T18:52:52;9.10;99.90
52044;DHT22;38053;53.100;6.078;2022-09-28T18:55:17;9.00;99.90
52044;DHT22;38053;53.100;6.078;2022-09-28T18:57:43;9.00;99.90
52044;DHT22;38053;53.100;6.078;2022-09-28T19:00:11;9.00;99.90
52044;DHT22;38053;53.100;6.078;2022-09-28T19:02:38;8.90;99.90